PWSweather.com
Personal Weather Stations
Station Observations
265NC
Va2kh, Stcasimir, QC G0A 3L0

Va2khStcasimir, QC G0A 3L0

Lat: 46.65839, Lon: -72.13905

Elevation: 105

Station Type: National Geographic 265NC

http://www.qsl.net/va2kh

High Low Average
Temperature 34.3°F1.3°F 21.6°F-5.8°F 27.6°F-2.4°F
Dew Point 24.9°F-3.9°F 12.7°F-10.7°F 17.3°F-8.2°F
Winds 5.2 mph NE8.4 mph NE Calm Calm 2.2 mph 3.5 mph
Wind Gusts 15.2 mph24.5 mph 1.6 mph2.6 mph 7.4 mph11.9 mph
Humidity 78% 50% 65%
Pressure 30.22 in1023.40 in 30.14 in1020.70 in -
Precipitation 0.00 in0.00 in - -
Hour Temp Dew Point Humidity Winds Wind Gusts Pressure Precip Precip Rate Daily Precip Total
12:01 AM 30.7°F-0.7°C 24.7°F-4.1°C 78% 0.5 mph NE0.8 kmh NE 3.8 mph6.1 kmh 30.22 in1023.4 mb 0.00 in0.0 mm 0.00 in/hr0.0 mm/hr 0.00 in0.0 mm
12:15 AM 30.7°F-0.7°C 24.7°F-4.1°C 78% 0.7 mph ENE1.1 kmh ENE 4.5 mph7.2 kmh 30.21 in1023.0 mb 0.00 in0.0 mm 0.00 in/hr0.0 mm/hr 0.00 in0.0 mm
12:30 AM 30.9°F-0.6°C 24.9°F-3.9°C 78% 0.4 mph NE0.6 kmh NE 3.8 mph6.1 kmh 30.19 in1022.4 mb 0.00 in0.0 mm 0.00 in/hr0.0 mm/hr 0.00 in0.0 mm
12:45 AM 30.9°F-0.6°C 24.0°F-4.4°C 75% 1.7 mph NE2.7 kmh NE 7.6 mph12.2 kmh 30.19 in1022.4 mb 0.00 in0.0 mm 0.00 in/hr0.0 mm/hr 0.00 in0.0 mm
01:00 AM 30.9°F-0.6°C 23.3°F-4.8°C 73% 1.3 mph NNE2.1 kmh NNE 6.0 mph9.7 kmh 30.18 in1022.0 mb 0.00 in0.0 mm 0.00 in/hr0.0 mm/hr 0.00 in0.0 mm
01:15 AM 30.9°F-0.6°C 23.0°F-5.0°C 72% 1.8 mph NE2.9 kmh NE 6.9 mph11.1 kmh 30.18 in1022.0 mb 0.00 in0.0 mm 0.00 in/hr0.0 mm/hr 0.00 in0.0 mm
01:30 AM 30.9°F-0.6°C 22.7°F-5.2°C 71% 1.9 mph NE3.1 kmh NE 8.3 mph13.4 kmh 30.17 in1021.7 mb 0.00 in0.0 mm 0.00 in/hr0.0 mm/hr 0.00 in0.0 mm
01:45 AM 30.6°F-0.8°C 22.6°F-5.2°C 72% 2.2 mph N3.5 kmh N 6.9 mph11.1 kmh 30.17 in1021.7 mb 0.00 in0.0 mm 0.00 in/hr0.0 mm/hr 0.00 in0.0 mm
02:00 AM 30.4°F-0.9°C 22.5°F-5.3°C 72% 3.5 mph NE5.6 kmh NE 7.6 mph12.2 kmh 30.18 in1022.0 mb 0.00 in0.0 mm 0.00 in/hr0.0 mm/hr 0.00 in0.0 mm
02:15 AM 30.4°F-0.9°C 22.1°F-5.5°C 71% 3.0 mph NE4.8 kmh NE 7.6 mph12.2 kmh 30.18 in1022.0 mb 0.00 in0.0 mm 0.00 in/hr0.0 mm/hr 0.00 in0.0 mm
02:30 AM 30.4°F-0.9°C 21.8°F-5.7°C 70% 1.8 mph NE2.9 kmh NE 6.0 mph9.7 kmh 30.18 in1022.0 mb 0.00 in0.0 mm 0.00 in/hr0.0 mm/hr 0.00 in0.0 mm
02:45 AM 30.2°F-1.0°C 22.0°F-5.6°C 71% 2.7 mph NNE4.3 kmh NNE 7.6 mph12.2 kmh 30.17 in1021.7 mb 0.00 in0.0 mm 0.00 in/hr0.0 mm/hr 0.00 in0.0 mm
03:00 AM 30.0°F-1.1°C 20.4°F-6.4°C 67% 5.2 mph NE8.4 kmh NE 12.1 mph19.5 kmh 30.17 in1021.7 mb 0.00 in0.0 mm 0.00 in/hr0.0 mm/hr 0.00 in0.0 mm
03:15 AM 29.8°F-1.2°C 20.3°F-6.5°C 67% 2.5 mph NE4.0 kmh NE 9.2 mph14.8 kmh 30.17 in1021.7 mb 0.00 in0.0 mm 0.00 in/hr0.0 mm/hr 0.00 in0.0 mm
03:30 AM 29.8°F-1.2°C 19.2°F-7.1°C 64% 3.9 mph NE6.3 kmh NE 9.8 mph15.8 kmh 30.17 in1021.7 mb 0.00 in0.0 mm 0.00 in/hr0.0 mm/hr 0.00 in0.0 mm
03:45 AM 29.5°F-1.4°C 19.2°F-7.1°C 65% 4.7 mph N7.6 kmh N 12.1 mph19.5 kmh 30.17 in1021.7 mb 0.00 in0.0 mm 0.00 in/hr0.0 mm/hr 0.00 in0.0 mm
04:00 AM 29.1°F-1.6°C 18.5°F-7.5°C 64% 4.8 mph NE7.7 kmh NE 15.2 mph24.5 kmh 30.16 in1021.3 mb 0.00 in0.0 mm 0.00 in/hr0.0 mm/hr 0.00 in0.0 mm
04:15 AM 28.9°F-1.7°C 19.0°F-7.2°C 66% 3.3 mph NNE5.3 kmh NNE 9.2 mph14.8 kmh 30.16 in1021.3 mb 0.00 in0.0 mm 0.00 in/hr0.0 mm/hr 0.00 in0.0 mm
04:30 AM 28.6°F-1.9°C 18.7°F-7.4°C 66% 3.7 mph NE6.0 kmh NE 9.8 mph15.8 kmh 30.15 in1021.0 mb 0.00 in0.0 mm 0.00 in/hr0.0 mm/hr 0.00 in0.0 mm
04:45 AM 28.4°F-2.0°C 19.2°F-7.1°C 68% 2.4 mph NNE3.9 kmh NNE 6.9 mph11.1 kmh 30.15 in1021.0 mb 0.00 in0.0 mm 0.00 in/hr0.0 mm/hr 0.00 in0.0 mm
05:00 AM 28.2°F-2.1°C 19.4°F-7.0°C 69% 2.8 mph NE4.5 kmh NE 9.2 mph14.8 kmh 30.15 in1021.0 mb 0.00 in0.0 mm 0.00 in/hr0.0 mm/hr 0.00 in0.0 mm
05:15 AM 28.0°F-2.2°C 19.2°F-7.1°C 69% 3.4 mph NE5.5 kmh NE 9.8 mph15.8 kmh 30.14 in1020.7 mb 0.00 in0.0 mm 0.00 in/hr0.0 mm/hr 0.00 in0.0 mm
05:30 AM 27.9°F-2.3°C 19.0°F-7.2°C 69% 3.3 mph NNE5.3 kmh NNE 9.8 mph15.8 kmh 30.15 in1021.0 mb 0.00 in0.0 mm 0.00 in/hr0.0 mm/hr 0.00 in0.0 mm
05:45 AM 27.5°F-2.5°C 18.4°F-7.6°C 68% 2.5 mph NNW4.0 kmh NNW 9.2 mph14.8 kmh 30.15 in1021.0 mb 0.00 in0.0 mm 0.00 in/hr0.0 mm/hr 0.00 in0.0 mm
06:00 AM 27.3°F-2.6°C 18.2°F-7.7°C 68% 3.4 mph NNE5.5 kmh NNE 11.4 mph18.3 kmh 30.16 in1021.3 mb 0.00 in0.0 mm 0.00 in/hr0.0 mm/hr 0.00 in0.0 mm
06:15 AM 27.3°F-2.6°C 17.8°F-7.9°C 67% 4.5 mph NE7.2 kmh NE 11.4 mph18.3 kmh 30.15 in1021.0 mb 0.00 in0.0 mm 0.00 in/hr0.0 mm/hr 0.00 in0.0 mm
06:30 AM 27.1°F-2.7°C 18.0°F-7.8°C 68% 2.9 mph NNE4.7 kmh NNE 9.2 mph14.8 kmh 30.15 in1021.0 mb 0.00 in0.0 mm 0.00 in/hr0.0 mm/hr 0.00 in0.0 mm
06:45 AM 26.8°F-2.9°C 18.3°F-7.6°C 70% 3.0 mph N4.8 kmh N 8.3 mph13.4 kmh 30.16 in1021.3 mb 0.00 in0.0 mm 0.00 in/hr0.0 mm/hr 0.00 in0.0 mm
07:00 AM 26.2°F-3.2°C 18.5°F-7.5°C 72% 3.0 mph N4.8 kmh N 9.2 mph14.8 kmh 30.16 in1021.3 mb 0.00 in0.0 mm 0.00 in/hr0.0 mm/hr 0.00 in0.0 mm
07:15 AM 26.1°F-3.3°C 18.3°F-7.6°C 72% 2.7 mph N4.3 kmh N 9.8 mph15.8 kmh 30.16 in1021.3 mb 0.00 in0.0 mm 0.00 in/hr0.0 mm/hr 0.00 in0.0 mm
07:30 AM 25.7°F-3.5°C 18.3°F-7.6°C 73% 3.6 mph NNE5.8 kmh NNE 9.8 mph15.8 kmh 30.16 in1021.3 mb 0.00 in0.0 mm 0.00 in/hr0.0 mm/hr 0.00 in0.0 mm
07:45 AM 25.5°F-3.6°C 18.1°F-7.7°C 73% 1.9 mph N3.1 kmh N 6.0 mph9.7 kmh 30.17 in1021.7 mb 0.00 in0.0 mm 0.00 in/hr0.0 mm/hr 0.00 in0.0 mm
08:00 AM 25.2°F-3.8°C 18.1°F-7.7°C 74% 3.0 mph N4.8 kmh N 7.6 mph12.2 kmh 30.17 in1021.7 mb 0.00 in0.0 mm 0.00 in/hr0.0 mm/hr 0.00 in0.0 mm
08:15 AM 25.3°F-3.7°C 18.3°F-7.6°C 74% 2.6 mph N4.2 kmh N 7.6 mph12.2 kmh 30.17 in1021.7 mb 0.00 in0.0 mm 0.00 in/hr0.0 mm/hr 0.00 in0.0 mm
08:30 AM 25.7°F-3.5°C 18.6°F-7.4°C 74% 3.0 mph N4.8 kmh N 9.8 mph15.8 kmh 30.18 in1022.0 mb 0.00 in0.0 mm 0.00 in/hr0.0 mm/hr 0.00 in0.0 mm
08:45 AM 26.1°F-3.3°C 18.6°F-7.4°C 73% 3.5 mph N5.6 kmh N 9.8 mph15.8 kmh 30.18 in1022.0 mb 0.00 in0.0 mm 0.00 in/hr0.0 mm/hr 0.00 in0.0 mm
09:00 AM 26.2°F-3.2°C 18.2°F-7.7°C 71% 4.5 mph N7.2 kmh N 10.7 mph17.2 kmh 30.19 in1022.4 mb 0.00 in0.0 mm 0.00 in/hr0.0 mm/hr 0.00 in0.0 mm
09:15 AM 27.0°F-2.8°C 18.5°F-7.5°C 70% 3.0 mph N4.8 kmh N 10.7 mph17.2 kmh 30.19 in1022.4 mb 0.00 in0.0 mm 0.00 in/hr0.0 mm/hr 0.00 in0.0 mm
09:30 AM 27.3°F-2.6°C 18.2°F-7.7°C 68% 4.2 mph N6.8 kmh N 12.1 mph19.5 kmh 30.19 in1022.4 mb 0.00 in0.0 mm 0.00 in/hr0.0 mm/hr 0.00 in0.0 mm
09:45 AM 27.9°F-2.3°C 18.7°F-7.4°C 68% 3.4 mph NNE5.5 kmh NNE 9.8 mph15.8 kmh 30.19 in1022.4 mb 0.00 in0.0 mm 0.00 in/hr0.0 mm/hr 0.00 in0.0 mm
10:00 AM 28.6°F-1.9°C 18.3°F-7.6°C 65% 3.4 mph N5.5 kmh N 9.2 mph14.8 kmh 30.19 in1022.4 mb 0.00 in0.0 mm 0.00 in/hr0.0 mm/hr 0.00 in0.0 mm
10:15 AM 28.6°F-1.9°C 18.3°F-7.6°C 65% 4.3 mph N6.9 kmh N 9.2 mph14.8 kmh 30.20 in1022.7 mb 0.00 in0.0 mm 0.00 in/hr0.0 mm/hr 0.00 in0.0 mm
10:30 AM 28.9°F-1.7°C 18.3°F-7.6°C 64% 3.0 mph NNE4.8 kmh NNE 9.8 mph15.8 kmh 30.19 in1022.4 mb 0.00 in0.0 mm 0.00 in/hr0.0 mm/hr 0.00 in0.0 mm
10:45 AM 28.8°F-1.8°C 18.2°F-7.7°C 64% 3.1 mph NNW5.0 kmh NNW 9.2 mph14.8 kmh 30.19 in1022.4 mb 0.00 in0.0 mm 0.00 in/hr0.0 mm/hr 0.00 in0.0 mm
11:00 AM 29.1°F-1.6°C 18.5°F-7.5°C 64% 3.3 mph N5.3 kmh N 9.2 mph14.8 kmh 30.19 in1022.4 mb 0.00 in0.0 mm 0.00 in/hr0.0 mm/hr 0.00 in0.0 mm
11:15 AM 30.0°F-1.1°C 19.0°F-7.2°C 63% 2.1 mph NW3.4 kmh NW 6.9 mph11.1 kmh 30.18 in1022.0 mb 0.00 in0.0 mm 0.00 in/hr0.0 mm/hr 0.00 in0.0 mm
11:30 AM 29.8°F-1.2°C 18.1°F-7.7°C 61% 3.4 mph N5.5 kmh N 9.8 mph15.8 kmh 30.17 in1021.7 mb 0.00 in0.0 mm 0.00 in/hr0.0 mm/hr 0.00 in0.0 mm
11:45 AM 30.4°F-0.9°C 19.0°F-7.2°C 62% 2.1 mph NW3.4 kmh NW 8.3 mph13.4 kmh 30.17 in1021.7 mb 0.00 in0.0 mm 0.00 in/hr0.0 mm/hr 0.00 in0.0 mm
12:00 PM 31.1°F-0.5°C 18.9°F-7.3°C 60% 1.6 mph N2.6 kmh N 6.9 mph11.1 kmh 30.16 in1021.3 mb 0.00 in0.0 mm 0.00 in/hr0.0 mm/hr 0.00 in0.0 mm
12:15 PM 31.1°F-0.5°C 18.5°F-7.5°C 59% 1.6 mph NW2.6 kmh NW 7.6 mph12.2 kmh 30.17 in1021.7 mb 0.00 in0.0 mm 0.00 in/hr0.0 mm/hr 0.00 in0.0 mm
12:30 PM 30.7°F-0.7°C 18.1°F-7.7°C 59% 2.2 mph NW3.5 kmh NW 8.3 mph13.4 kmh 30.17 in1021.7 mb 0.00 in0.0 mm 0.00 in/hr0.0 mm/hr 0.00 in0.0 mm
12:45 PM 30.7°F-0.7°C 17.7°F-7.9°C 58% 2.9 mph N4.7 kmh N 9.2 mph14.8 kmh 30.17 in1021.7 mb 0.00 in0.0 mm 0.00 in/hr0.0 mm/hr 0.00 in0.0 mm
01:00 PM 31.3°F-0.4°C 18.2°F-7.7°C 58% 1.7 mph NW2.7 kmh NW 8.3 mph13.4 kmh 30.17 in1021.7 mb 0.00 in0.0 mm 0.00 in/hr0.0 mm/hr 0.00 in0.0 mm
01:15 PM 31.1°F-0.5°C 18.5°F-7.5°C 59% 2.2 mph NW3.5 kmh NW 6.9 mph11.1 kmh 30.17 in1021.7 mb 0.00 in0.0 mm 0.00 in/hr0.0 mm/hr 0.00 in0.0 mm
01:30 PM 31.1°F-0.5°C 18.1°F-7.7°C 58% 2.1 mph NW3.4 kmh NW 6.9 mph11.1 kmh 30.17 in1021.7 mb 0.00 in0.0 mm 0.00 in/hr0.0 mm/hr 0.00 in0.0 mm
01:45 PM 30.7°F-0.7°C 17.3°F-8.2°C 57% 2.0 mph NW3.2 kmh NW 8.3 mph13.4 kmh 30.17 in1021.7 mb 0.00 in0.0 mm 0.00 in/hr0.0 mm/hr 0.00 in0.0 mm
02:00 PM 31.3°F-0.4°C 17.8°F-7.9°C 57% 2.0 mph NW3.2 kmh NW 6.9 mph11.1 kmh 30.18 in1022.0 mb 0.00 in0.0 mm 0.00 in/hr0.0 mm/hr 0.00 in0.0 mm
02:15 PM 33.6°F0.9°C 18.8°F-7.3°C 54% 1.8 mph NW2.9 kmh NW 8.3 mph13.4 kmh 30.17 in1021.7 mb 0.00 in0.0 mm 0.00 in/hr0.0 mm/hr 0.00 in0.0 mm
02:30 PM 33.4°F0.8°C 17.7°F-7.9°C 52% 2.4 mph NW3.9 kmh NW 9.2 mph14.8 kmh 30.18 in1022.0 mb 0.00 in0.0 mm 0.00 in/hr0.0 mm/hr 0.00 in0.0 mm
02:45 PM 34.0°F1.1°C 18.7°F-7.4°C 53% 1.3 mph NW2.1 kmh NW 6.0 mph9.7 kmh 30.18 in1022.0 mb 0.00 in0.0 mm 0.00 in/hr0.0 mm/hr 0.00 in0.0 mm
03:00 PM 34.3°F1.3°C 17.7°F-7.9°C 50% 1.9 mph NW3.1 kmh NW 6.0 mph9.7 kmh 30.18 in1022.0 mb 0.00 in0.0 mm 0.00 in/hr0.0 mm/hr 0.00 in0.0 mm
03:15 PM 32.4°F0.2°C 15.8°F-9.0°C 50% 2.9 mph N4.7 kmh N 9.2 mph14.8 kmh 30.19 in1022.4 mb 0.00 in0.0 mm 0.00 in/hr0.0 mm/hr 0.00 in0.0 mm
03:30 PM 31.8°F-0.1°C 15.3°F-9.3°C 50% 2.3 mph NNW3.7 kmh NNW 8.3 mph13.4 kmh 30.19 in1022.4 mb 0.00 in0.0 mm 0.00 in/hr0.0 mm/hr 0.00 in0.0 mm
03:45 PM 30.0°F-1.1°C 14.6°F-9.7°C 52% 2.1 mph N3.4 kmh N 6.0 mph9.7 kmh 30.20 in1022.7 mb 0.00 in0.0 mm 0.00 in/hr0.0 mm/hr 0.00 in0.0 mm
04:00 PM 28.9°F-1.7°C 14.4°F-9.8°C 54% 2.0 mph N3.2 kmh N 6.9 mph11.1 kmh 30.20 in1022.7 mb 0.00 in0.0 mm 0.00 in/hr0.0 mm/hr 0.00 in0.0 mm
04:15 PM 28.4°F-2.0°C 14.7°F-9.6°C 56% 1.5 mph NNW2.4 kmh NNW 6.0 mph9.7 kmh 30.20 in1022.7 mb 0.00 in0.0 mm 0.00 in/hr0.0 mm/hr 0.00 in0.0 mm
04:30 PM 27.9°F-2.3°C 14.2°F-9.9°C 56% 1.4 mph N2.3 kmh N 6.0 mph9.7 kmh 30.20 in1022.7 mb 0.00 in0.0 mm 0.00 in/hr0.0 mm/hr 0.00 in0.0 mm
04:45 PM 27.5°F-2.5°C 14.7°F-9.6°C 58% 2.8 mph NNW4.5 kmh NNW 6.9 mph11.1 kmh 30.20 in1022.7 mb 0.00 in0.0 mm 0.00 in/hr0.0 mm/hr 0.00 in0.0 mm
05:00 PM 27.1°F-2.7°C 14.0°F-10.0°C 57% 2.9 mph NNW4.7 kmh NNW 9.8 mph15.8 kmh 30.20 in1022.7 mb 0.00 in0.0 mm 0.00 in/hr0.0 mm/hr 0.00 in0.0 mm
05:15 PM 26.6°F-3.0°C 13.9°F-10.1°C 58% 1.7 mph N2.7 kmh N 8.3 mph13.4 kmh 30.20 in1022.7 mb 0.00 in0.0 mm 0.00 in/hr0.0 mm/hr 0.00 in0.0 mm
05:30 PM 26.4°F-3.1°C 13.7°F-10.2°C 58% 2.8 mph N4.5 kmh N 8.3 mph13.4 kmh 30.20 in1022.7 mb 0.00 in0.0 mm 0.00 in/hr0.0 mm/hr 0.00 in0.0 mm
05:45 PM 26.1°F-3.3°C 13.7°F-10.2°C 59% 2.8 mph N4.5 kmh N 8.3 mph13.4 kmh 30.20 in1022.7 mb 0.00 in0.0 mm 0.00 in/hr0.0 mm/hr 0.00 in0.0 mm
06:00 PM 25.7°F-3.5°C 13.8°F-10.1°C 60% 2.7 mph N4.3 kmh N 7.6 mph12.2 kmh 30.20 in1022.7 mb 0.00 in0.0 mm 0.00 in/hr0.0 mm/hr 0.00 in0.0 mm
06:15 PM 25.3°F-3.7°C 13.8°F-10.1°C 61% 2.1 mph NNW3.4 kmh NNW 7.6 mph12.2 kmh 30.20 in1022.7 mb 0.00 in0.0 mm 0.00 in/hr0.0 mm/hr 0.00 in0.0 mm
06:30 PM 25.0°F-3.9°C 13.8°F-10.1°C 62% 1.9 mph N3.1 kmh N 6.9 mph11.1 kmh 30.20 in1022.7 mb 0.00 in0.0 mm 0.00 in/hr0.0 mm/hr 0.00 in0.0 mm
06:45 PM 24.8°F-4.0°C 14.0°F-10.0°C 63% 1.6 mph NNE2.6 kmh NNE 5.4 mph8.7 kmh 30.20 in1022.7 mb 0.00 in0.0 mm 0.00 in/hr0.0 mm/hr 0.00 in0.0 mm
07:00 PM 24.4°F-4.2°C 13.7°F-10.2°C 63% 2.0 mph N3.2 kmh N 7.6 mph12.2 kmh 30.20 in1022.7 mb 0.00 in0.0 mm 0.00 in/hr0.0 mm/hr 0.00 in0.0 mm
07:15 PM 24.1°F-4.4°C 13.4°F-10.3°C 63% 1.5 mph N2.4 kmh N 4.5 mph7.2 kmh 30.20 in1022.7 mb 0.00 in0.0 mm 0.00 in/hr0.0 mm/hr 0.00 in0.0 mm
07:30 PM 23.9°F-4.5°C 13.5°F-10.3°C 64% 0.6 mph N1.0 kmh N 4.5 mph7.2 kmh 30.20 in1022.7 mb 0.00 in0.0 mm 0.00 in/hr0.0 mm/hr 0.00 in0.0 mm
07:45 PM 23.5°F-4.7°C 13.2°F-10.4°C 64% 0.3 mph N0.5 kmh N 3.1 mph5.0 kmh 30.20 in1022.7 mb 0.00 in0.0 mm 0.00 in/hr0.0 mm/hr 0.00 in0.0 mm
08:00 PM 23.2°F-4.9°C 13.2°F-10.4°C 65% Calm Calm 1.6 mph2.6 kmh 30.20 in1022.7 mb 0.00 in0.0 mm 0.00 in/hr0.0 mm/hr 0.00 in0.0 mm
08:15 PM 22.8°F-5.1°C 13.9°F-10.1°C 68% Calm Calm 1.6 mph2.6 kmh 30.20 in1022.7 mb 0.00 in0.0 mm 0.00 in/hr0.0 mm/hr 0.00 in0.0 mm
08:30 PM 22.6°F-5.2°C 13.4°F-10.3°C 67% 0.2 mph N0.3 kmh N 2.2 mph3.5 kmh 30.21 in1023.0 mb 0.00 in0.0 mm 0.00 in/hr0.0 mm/hr 0.00 in0.0 mm
08:45 PM 22.5°F-5.3°C 13.2°F-10.4°C 67% 0.7 mph N1.1 kmh N 3.1 mph5.0 kmh 30.20 in1022.7 mb 0.00 in0.0 mm 0.00 in/hr0.0 mm/hr 0.00 in0.0 mm
09:00 PM 22.5°F-5.3°C 12.9°F-10.6°C 66% 0.8 mph NW1.3 kmh NW 4.5 mph7.2 kmh 30.21 in1023.0 mb 0.00 in0.0 mm 0.00 in/hr0.0 mm/hr 0.00 in0.0 mm
09:15 PM 22.3°F-5.4°C 12.7°F-10.7°C 66% 0.7 mph NNW1.1 kmh NNW 4.5 mph7.2 kmh 30.22 in1023.4 mb 0.00 in0.0 mm 0.00 in/hr0.0 mm/hr 0.00 in0.0 mm
09:30 PM 22.3°F-5.4°C 12.7°F-10.7°C 66% 1.6 mph NNW2.6 kmh NNW 6.0 mph9.7 kmh 30.22 in1023.4 mb 0.00 in0.0 mm 0.00 in/hr0.0 mm/hr 0.00 in0.0 mm
09:45 PM 22.1°F-5.5°C 12.9°F-10.6°C 67% 2.0 mph N3.2 kmh N 6.0 mph9.7 kmh 30.21 in1023.0 mb 0.00 in0.0 mm 0.00 in/hr0.0 mm/hr 0.00 in0.0 mm
10:00 PM 21.7°F-5.7°C 12.9°F-10.6°C 68% 1.5 mph N2.4 kmh N 4.5 mph7.2 kmh 30.21 in1023.0 mb 0.00 in0.0 mm 0.00 in/hr0.0 mm/hr 0.00 in0.0 mm
10:15 PM 21.7°F-5.7°C 12.9°F-10.6°C 68% 1.3 mph N2.1 kmh N 5.4 mph8.7 kmh 30.21 in1023.0 mb 0.00 in0.0 mm 0.00 in/hr0.0 mm/hr 0.00 in0.0 mm
10:30 PM 21.7°F-5.7°C 12.9°F-10.6°C 68% 0.7 mph N1.1 kmh N 3.1 mph5.0 kmh 30.21 in1023.0 mb 0.00 in0.0 mm 0.00 in/hr0.0 mm/hr 0.00 in0.0 mm
10:45 PM 21.7°F-5.7°C 13.2°F-10.4°C 69% 0.8 mph N1.3 kmh N 3.8 mph6.1 kmh 30.22 in1023.4 mb 0.00 in0.0 mm 0.00 in/hr0.0 mm/hr 0.00 in0.0 mm
11:00 PM 21.7°F-5.7°C 13.5°F-10.3°C 70% 0.1 mph NNW0.2 kmh NNW 2.2 mph3.5 kmh 30.22 in1023.4 mb 0.00 in0.0 mm 0.00 in/hr0.0 mm/hr 0.00 in0.0 mm
11:15 PM 21.6°F-5.8°C 13.3°F-10.4°C 70% 0.1 mph NNW0.2 kmh NNW 2.2 mph3.5 kmh 30.22 in1023.4 mb 0.00 in0.0 mm 0.00 in/hr0.0 mm/hr 0.00 in0.0 mm
11:30 PM 21.6°F-5.8°C 13.7°F-10.2°C 71% 0.3 mph NNW0.5 kmh NNW 3.1 mph5.0 kmh 30.22 in1023.4 mb 0.00 in0.0 mm 0.00 in/hr0.0 mm/hr 0.00 in0.0 mm
11:45 PM 21.6°F-5.8°C 13.7°F-10.2°C 71% Calm Calm 2.2 mph3.5 kmh 30.22 in1023.4 mb 0.00 in0.0 mm 0.00 in/hr0.0 mm/hr 0.00 in0.0 mm